Time;durP1;ratioP1;P1;durP2;ratioP2;P2;SDS_P1;SDS_P2;PMS_P1;PMS_P2;Temp;Humidity;BMP_temperature;BMP_pressure;BME280_temperature;BME280_humidity;BME280_pressure;Samples;Min_cycle;Max_cycle;Signal;HPM_P1;HPM_P2
2023/09/29 00:01:23;;;;;;;0.00;0.00;;;;;;;12.89;78.13;100256.38;7365044;19;20017;-61
2023/09/29 00:03:48;;;;;;;0.10;0.10;;;;;;;12.91;77.92;100272.03;7361259;19;20020;-60
2023/09/29 00:06:14;;;;;;;0.10;0.10;;;;;;;12.90;78.18;100267.72;7357756;19;20014;-61
2023/09/29 00:08:39;;;;;;;0.00;0.00;;;;;;;12.74;77.62;100243.88;7365424;19;20463;-60
2023/09/29 00:11:05;;;;;;;0.10;0.10;;;;;;;12.90;78.36;100279.06;7369398;19;20070;-61
2023/09/29 00:13:30;;;;;;;0.10;0.10;;;;;;;12.89;78.24;100276.50;7362722;19;20010;-61
2023/09/29 00:15:55;;;;;;;0.10;0.10;;;;;;;12.88;78.53;100277.44;7360311;19;20027;-60
2023/09/29 00:18:23;;;;;;;0.10;0.10;;;;;;;12.88;78.67;100286.13;7365300;19;20010;-61
2023/09/29 00:20:48;;;;;;;0.00;0.00;;;;;;;12.74;78.48;100272.72;7372493;19;20053;-59
2023/09/29 00:23:15;;;;;;;0.10;0.10;;;;;;;12.79;77.97;100286.47;7363838;19;20346;-60
2023/09/29 00:25:40;;;;;;;0.10;0.10;;;;;;;12.86;78.69;100303.66;7365274;19;20450;-60
2023/09/29 00:28:06;;;;;;;0.05;0.05;;;;;;;12.85;78.70;100311.59;7358204;19;20491;-60
2023/09/29 00:30:31;;;;;;;0.10;0.10;;;;;;;12.85;78.21;100322.06;7362349;19;20018;-60
2023/09/29 00:32:56;;;;;;;0.10;0.10;;;;;;;12.83;78.62;100313.44;7360229;19;19998;-60
2023/09/29 00:35:27;;;;;;;0.10;0.10;;;;;;;12.83;78.27;100318.69;7360376;19;20025;-60
2023/09/29 00:37:56;;;;;;;0.10;0.10;;;;;;;12.82;78.71;100332.66;7363964;19;20003;-61
2023/09/29 00:40:22;;;;;;;0.10;0.10;;;;;;;12.83;78.20;100337.03;7367205;19;20111;-60
2023/09/29 00:42:48;;;;;;;0.10;0.10;;;;;;;12.75;78.46;100320.72;7367374;19;20035;-60
2023/09/29 00:45:16;;;;;;;0.10;0.10;;;;;;;12.81;78.16;100339.66;7360641;19;20006;-60
2023/09/29 00:47:43;;;;;;;;;;;;;;;12.84;77.41;100346.59;7362111;19;20011;-61
2023/09/29 00:50:10;;;;;;;0.10;0.10;;;;;;;12.80;78.08;100342.38;7369018;19;19928;-60
2023/09/29 00:52:42;;;;;;;0.10;0.10;;;;;;;12.82;77.76;100348.38;7368814;19;20002;-60
2023/09/29 00:55:13;;;;;;;0.10;0.10;;;;;;;12.76;78.43;100346.00;7365748;19;20060;-60
2023/09/29 00:57:44;;;;;;;0.10;0.10;;;;;;;12.75;77.98;100352.16;7359575;19;20037;-60
2023/09/29 01:00:30;;;;;;;0.00;0.00;;;;;;;12.73;78.21;100353.06;7371150;19;20022;-60
2023/09/29 01:03:03;;;;;;;0.00;0.00;;;;;;;12.75;78.15;100357.41;7371045;19;20018;-61
2023/09/29 01:05:32;;;;;;;0.10;0.10;;;;;;;12.63;78.16;100343.84;7359843;19;20408;-61
2023/09/29 01:07:57;;;;;;;0.10;0.10;;;;;;;12.56;77.88;100339.72;7366825;19;20738;-60
2023/09/29 01:10:24;;;;;;;0.10;0.10;;;;;;;12.71;78.29;100367.97;7355480;19;20010;-61
2023/09/29 01:12:49;;;;;;;0.10;0.10;;;;;;;12.70;78.52;100354.94;7368625;19;20371;-60
2023/09/29 01:15:15;;;;;;;0.10;0.10;;;;;;;12.71;78.37;100362.75;7359731;19;20007;-60
2023/09/29 01:17:42;;;;;;;0.10;0.10;;;;;;;12.72;78.36;100369.72;7363541;19;20010;-60
2023/09/29 01:20:16;;;;;;;0.10;0.10;;;;;;;12.72;78.46;100374.97;7363849;19;20011;-60
2023/09/29 01:22:48;;;;;;;0.10;0.10;;;;;;;12.68;78.61;100367.25;7363090;19;20014;-60
2023/09/29 01:25:17;;;;;;;0.20;0.20;;;;;;;12.71;78.50;100378.47;7368381;19;20510;-61
2023/09/29 01:27:43;;;;;;;0.10;0.10;;;;;;;12.63;78.57;100363.97;7358259;19;20018;-61
2023/09/29 01:30:13;;;;;;;0.00;0.00;;;;;;;12.69;78.83;100377.69;7359004;19;20018;-60
2023/09/29 01:32:39;;;;;;;0.10;0.10;;;;;;;12.69;78.70;100382.06;7358497;19;20010;-60
2023/09/29 01:35:04;;;;;;;0.10;0.10;;;;;;;12.65;77.93;100372.59;7358586;19;20029;-60
2023/09/29 01:37:30;;;;;;;0.10;0.10;;;;;;;12.65;78.32;100380.47;7362273;19;20094;-60
2023/09/29 01:39:56;;;;;;;0.10;0.10;;;;;;;12.57;78.15;100365.03;7362296;19;20027;-60
2023/09/29 01:42:21;;;;;;;0.10;0.10;;;;;;;12.67;78.27;100383.88;7356318;19;20513;-60
2023/09/29 01:44:48;;;;;;;0.10;0.10;;;;;;;12.64;78.80;100376.13;7352679;19;20006;-61
2023/09/29 01:47:13;;;;;;;0.10;0.10;;;;;;;12.65;78.38;100389.16;7365002;19;20014;-60
2023/09/29 01:49:38;;;;;;;0.10;0.10;;;;;;;12.65;78.30;100386.56;7359555;19;20018;-61
2023/09/29 01:52:04;;;;;;;0.10;0.10;;;;;;;12.64;77.92;100384.84;7355848;19;20078;-60
2023/09/29 01:54:31;;;;;;;0.10;0.10;;;;;;;12.65;78.72;100383.94;7362823;19;21056;-60
2023/09/29 01:56:56;;;;;;;0.10;0.10;;;;;;;12.64;78.14;100397.94;7354115;19;20106;-61
2023/09/29 01:59:22;;;;;;;0.10;0.10;;;;;;;12.64;78.64;100390.09;7360431;19;20371;-61
2023/09/29 02:01:48;;;;;;;0.10;0.10;;;;;;;12.63;78.56;100390.16;7363842;19;20010;-61
2023/09/29 02:04:14;;;;;;;0.10;0.10;;;;;;;12.63;78.40;100390.16;7364090;19;20017;-60
2023/09/29 02:06:40;;;;;;;0.10;0.10;;;;;;;12.61;78.46;100384.94;7363931;19;20479;-60
2023/09/29 02:09:09;;;;;;;0.08;0.08;;;;;;;12.44;78.61;100369.00;7354914;19;20006;-61
2023/09/29 02:11:35;;;;;;;0.10;0.10;;;;;;;12.52;78.60;100395.78;7362248;19;20029;-60
2023/09/29 02:14:03;;;;;;;0.10;0.10;;;;;;;12.57;78.24;100409.56;7364699;19;20834;-60
2023/09/29 02:16:29;;;;;;;;;;;;;;;12.61;78.03;100419.00;7365696;19;20090;-61
2023/09/29 02:18:55;;;;;;;0.08;0.08;;;;;;;12.57;78.09;100411.31;7366059;19;19919;-60
2023/09/29 02:21:26;;;;;;;0.10;0.10;;;;;;;12.56;78.24;100410.44;7362766;19;20022;-60
2023/09/29 02:23:51;;;;;;;0.10;0.10;;;;;;;12.53;78.28;100410.56;7364040;19;20010;-60
2023/09/29 02:26:17;;;;;;;0.10;0.10;;;;;;;12.52;78.63;100414.13;7364116;19;20040;-60
2023/09/29 02:28:42;;;;;;;0.10;0.10;;;;;;;12.49;78.56;100418.59;7357993;19;20919;-60
2023/09/29 02:31:12;;;;;;;0.10;0.10;;;;;;;12.49;78.46;100419.44;7359952;19;20037;-60
2023/09/29 02:33:38;;;;;;;0.10;0.10;;;;;;;12.48;78.64;100417.75;7359491;19;20015;-59
2023/09/29 02:36:04;;;;;;;0.10;0.10;;;;;;;12.44;78.84;100431.84;7364795;19;20451;-60
2023/09/29 02:38:31;;;;;;;0.10;0.10;;;;;;;12.47;78.32;100429.13;7362655;19;20430;-60
2023/09/29 02:40:57;;;;;;;0.10;0.10;;;;;;;12.44;79.03;100431.84;7361757;19;20017;-60
2023/09/29 02:43:23;;;;;;;0.10;0.10;;;;;;;12.40;78.93;100436.31;7361112;19;20070;-60
2023/09/29 02:45:48;;;;;;;0.10;0.10;;;;;;;12.37;78.42;100430.34;7364316;19;20368;-60
2023/09/29 02:48:14;;;;;;;0.10;0.10;;;;;;;12.42;78.82;100444.16;7355945;19;20761;-60
2023/09/29 02:50:39;;;;;;;0.05;0.05;;;;;;;12.43;78.62;100457.19;7361848;19;20006;-60
2023/09/29 02:53:05;;;;;;;0.00;0.00;;;;;;;12.39;78.39;100447.72;7364551;19;20031;-60
2023/09/29 02:55:30;;;;;;;0.10;0.10;;;;;;;12.37;78.69;100446.91;7358576;19;20011;-59
2023/09/29 02:57:56;;;;;;;0.10;0.10;;;;;;;12.33;78.87;100439.22;7358494;19;20034;-60
2023/09/29 03:00:23;;;;;;;0.00;0.00;;;;;;;12.25;78.67;100436.00;7352740;19;20104;-60
2023/09/29 03:02:51;;;;;;;0.10;0.10;;;;;;;12.23;78.52;100437.81;7361472;19;20006;-60
2023/09/29 03:05:18;;;;;;;;;;;;;;;12.39;77.81;100462.56;7357602;19;20018;-60
2023/09/29 03:07:43;;;;;;;0.00;0.00;;;;;;;12.37;77.85;100462.63;7362262;19;19919;-60
2023/09/29 03:10:12;;;;;;;0.10;0.10;;;;;;;12.37;77.96;100469.63;7367865;19;20021;-60
2023/09/29 03:12:38;;;;;;;0.10;0.10;;;;;;;12.34;78.70;100464.50;7367552;19;20380;-61
2023/09/29 03:15:09;;;;;;;0.10;0.10;;;;;;;12.33;78.27;100468.03;7365549;19;20481;-60
2023/09/29 03:17:36;;;;;;;0.10;0.10;;;;;;;12.16;78.21;100443.22;7357688;19;20029;-60
2023/09/29 03:20:08;;;;;;;0.03;0.03;;;;;;;12.29;78.70;100458.56;7352638;19;20014;-60
2023/09/29 03:22:37;;;;;;;0.10;0.10;;;;;;;12.29;78.62;100466.41;7369593;19;20014;-60
2023/09/29 03:25:03;;;;;;;0.08;0.08;;;;;;;12.30;78.41;100473.34;7372041;19;20018;-60
2023/09/29 03:27:28;;;;;;;0.10;0.10;;;;;;;12.24;78.42;100477.03;7368432;19;20011;-60
2023/09/29 03:29:54;;;;;;;0.03;0.03;;;;;;;12.26;78.36;100487.44;7371809;19;20007;-60
2023/09/29 03:32:19;;;;;;;0.10;0.10;;;;;;;12.27;78.75;100492.66;7369594;19;20021;-61
2023/09/29 03:34:44;;;;;;;0.05;0.05;;;;;;;12.28;78.30;100498.75;7372186;19;20104;-59
2023/09/29 03:37:10;;;;;;;0.10;0.10;;;;;;;12.28;78.66;100504.81;7371828;19;20020;-60
2023/09/29 03:39:36;;;;;;;0.03;0.03;;;;;;;12.26;78.74;100511.00;7366357;19;20011;-61
2023/09/29 03:42:01;;;;;;;0.10;0.10;;;;;;;12.27;78.97;100515.34;7368641;19;20013;-61
2023/09/29 03:44:27;;;;;;;0.10;0.10;;;;;;;12.27;79.03;100515.34;7371178;19;20022;-60
2023/09/29 03:46:54;;;;;;;0.10;0.10;;;;;;;12.24;78.79;100524.16;7369132;19;20489;-60
2023/09/29 03:49:19;;;;;;;0.10;0.10;;;;;;;12.12;78.83;100504.47;7363699;19;20680;-60
2023/09/29 03:51:45;;;;;;;0.10;0.10;;;;;;;12.27;78.67;100523.22;7364119;19;20090;-59
2023/09/29 03:54:10;;;;;;;0.10;0.10;;;;;;;12.26;78.46;100524.09;7368333;19;20074;-59
2023/09/29 03:56:35;;;;;;;0.10;0.10;;;;;;;12.26;78.52;100522.34;7360391;19;20014;-60
2023/09/29 03:59:01;;;;;;;0.10;0.10;;;;;;;12.26;78.31;100530.19;7362805;19;20007;-60
2023/09/29 04:01:27;;;;;;;0.05;0.05;;;;;;;12.25;78.95;100531.09;7365964;19;20658;-60
2023/09/29 04:03:53;;;;;;;0.10;0.10;;;;;;;12.26;78.52;100542.41;7366649;19;20009;-60
2023/09/29 04:06:19;;;;;;;0.00;0.00;;;;;;;12.25;79.11;100546.81;7368973;19;20014;-60
2023/09/29 04:08:46;;;;;;;0.10;0.10;;;;;;;12.25;78.79;100552.03;7364800;19;20736;-60
2023/09/29 04:11:12;;;;;;;0.00;0.00;;;;;;;12.28;78.49;100564.19;7376148;19;20011;-60
2023/09/29 04:13:38;;;;;;;0.05;0.05;;;;;;;12.27;78.56;100557.25;7371695;19;20659;-60
2023/09/29 04:16:07;;;;;;;0.10;0.10;;;;;;;12.29;78.46;100563.28;7368023;19;20026;-60
2023/09/29 04:18:33;;;;;;;0.00;0.00;;;;;;;12.14;78.89;100547.16;7368127;19;20473;-60
2023/09/29 04:21:01;;;;;;;0.10;0.10;;;;;;;12.27;78.96;100581.66;7361492;19;20014;-61
2023/09/29 04:23:27;;;;;;;0.10;0.10;;;;;;;12.28;78.79;100582.53;7367087;19;20006;-60
2023/09/29 04:25:52;;;;;;;0.10;0.10;;;;;;;12.10;78.73;100568.22;7358392;19;20030;-60
2023/09/29 04:28:17;;;;;;;0.10;0.10;;;;;;;12.25;78.59;100591.31;7367074;19;20014;-60
2023/09/29 04:30:43;;;;;;;0.10;0.10;;;;;;;12.27;78.25;100601.75;7365815;19;20010;-60
2023/09/29 04:33:08;;;;;;;0.10;0.10;;;;;;;12.20;78.60;100586.22;7363591;19;20011;-60
2023/09/29 04:35:34;;;;;;;0.00;0.00;;;;;;;11.39;78.69;100463.09;7365759;19;20442;-60
2023/09/29 04:38:00;;;;;;;0.10;0.10;;;;;;;12.26;78.48;100595.63;7367958;19;20078;-60
2023/09/29 04:40:26;;;;;;;0.10;0.10;;;;;;;12.29;78.58;100610.41;7363437;19;20094;-60
2023/09/29 04:42:51;;;;;;;0.10;0.10;;;;;;;12.28;78.41;100608.72;7364582;19;20014;-60
2023/09/29 04:45:17;;;;;;;0.10;0.10;;;;;;;12.28;78.74;100608.72;7358318;19;20021;-60
2023/09/29 04:47:42;;;;;;;0.10;0.10;;;;;;;12.14;78.79;100598.66;7369381;19;20032;-60
2023/09/29 04:50:08;;;;;;;0.10;0.10;;;;;;;12.25;78.72;100612.25;7352631;19;20039;-61
2023/09/29 04:52:35;;;;;;;0.10;0.10;;;;;;;12.25;78.57;100609.63;7363992;19;20384;-60
2023/09/29 04:55:00;;;;;;;0.10;0.10;;;;;;;12.26;78.72;100613.13;7360749;19;20014;-60
2023/09/29 04:57:25;;;;;;;0.10;0.10;;;;;;;12.27;78.52;100617.47;7367549;19;20869;-60
2023/09/29 04:59:51;;;;;;;0.10;0.10;;;;;;;12.27;78.91;100617.47;7362471;19;20039;-60
2023/09/29 05:02:16;;;;;;;0.10;0.10;;;;;;;12.27;78.60;100620.09;7368659;19;20035;-60
2023/09/29 05:04:42;;;;;;;0.00;0.00;;;;;;;12.26;78.71;100626.19;7346889;19;20014;-59
2023/09/29 05:07:07;;;;;;;0.10;0.10;;;;;;;12.15;79.04;100608.22;7353803;19;20095;-60
2023/09/29 05:09:34;;;;;;;0.10;0.10;;;;;;;12.26;79.20;100636.69;7371331;19;20652;-61
2023/09/29 05:12:00;;;;;;;0.10;0.10;;;;;;;12.26;79.30;100644.53;7355346;19;20031;-60
2023/09/29 05:14:25;;;;;;;0.10;0.10;;;;;;;12.26;78.67;100657.63;7367010;19;20828;-60
2023/09/29 05:16:50;;;;;;;0.03;0.03;;;;;;;12.09;78.77;100619.72;7363267;19;20387;-59
2023/09/29 05:19:16;;;;;;;0.10;0.10;;;;;;;12.25;78.96;100661.16;7367493;19;20087;-60
2023/09/29 05:21:42;;;;;;;0.10;0.10;;;;;;;12.25;78.83;100655.91;7362439;19;20013;-60
2023/09/29 05:24:08;;;;;;;0.10;0.10;;;;;;;12.24;79.08;100669.91;7368671;19;20046;-60
2023/09/29 05:26:34;;;;;;;0.00;0.00;;;;;;;12.08;78.53;100641.56;7356479;19;20010;-61
2023/09/29 05:29:00;;;;;;;0.10;0.10;;;;;;;12.24;78.88;100675.16;7368180;19;20047;-60
2023/09/29 05:31:26;;;;;;;0.10;0.10;;;;;;;12.24;79.26;100680.38;7363545;19;20027;-61
2023/09/29 05:33:53;;;;;;;0.10;0.10;;;;;;;12.20;79.19;100667.38;7368476;19;20703;-60
2023/09/29 05:36:20;;;;;;;0.05;0.05;;;;;;;12.24;79.09;100685.63;7364523;19;20018;-60
2023/09/29 05:38:45;;;;;;;0.10;0.10;;;;;;;12.19;79.01;100677.91;7364747;19;20010;-60
2023/09/29 05:41:11;;;;;;;0.10;0.10;;;;;;;12.05;79.06;100664.34;7363194;19;20838;-60
2023/09/29 05:43:36;;;;;;;0.10;0.10;;;;;;;12.24;78.73;100696.09;7353671;19;19991;-60
2023/09/29 05:46:02;;;;;;;0.10;0.10;;;;;;;12.24;78.81;100704.81;7351599;19;20442;-60
2023/09/29 05:48:27;;;;;;;0.10;0.10;;;;;;;12.16;78.84;100693.69;7362304;19;19999;-61
2023/09/29 05:50:53;;;;;;;0.00;0.00;;;;;;;12.24;78.65;100707.41;7365042;19;20114;-60
2023/09/29 05:53:18;;;;;;;0.10;0.10;;;;;;;12.24;79.12;100709.19;7354453;19;19987;-60
2023/09/29 05:55:44;;;;;;;0.10;0.10;;;;;;;12.23;79.15;100715.34;7365946;19;20022;-59
2023/09/29 05:58:09;;;;;;;0.10;0.10;;;;;;;12.17;79.12;100717.22;7358498;19;19995;-60
2023/09/29 06:00:36;;;;;;;0.10;0.10;;;;;;;12.23;78.91;100731.03;7365051;19;20354;-60
2023/09/29 06:03:02;;;;;;;0.10;0.10;;;;;;;12.09;78.86;100706.09;7364764;19;20035;-60
2023/09/29 06:05:28;;;;;;;0.10;0.10;;;;;;;12.23;78.93;100729.28;7363324;19;20357;-60
2023/09/29 06:07:54;;;;;;;0.10;0.10;;;;;;;12.12;78.75;100721.72;7365170;19;20011;-61
2023/09/29 06:10:19;;;;;;;0.10;0.10;;;;;;;12.23;79.17;100741.50;7362125;19;20007;-60
2023/09/29 06:12:45;;;;;;;0.10;0.10;;;;;;;12.11;78.89;100722.63;7354064;19;20447;-60
2023/09/29 06:15:11;;;;;;;0.10;0.10;;;;;;;12.23;78.95;100746.75;7357296;19;20026;-60
2023/09/29 06:17:36;;;;;;;0.08;0.08;;;;;;;12.23;78.59;100759.84;7358094;19;20018;-60
2023/09/29 06:20:03;;;;;;;0.10;0.10;;;;;;;12.22;78.90;100756.38;7362758;19;20361;-61
2023/09/29 06:22:28;;;;;;;0.10;0.10;;;;;;;12.23;79.07;100770.31;7363388;19;20013;-60
2023/09/29 06:24:54;;;;;;;0.10;0.10;;;;;;;12.23;78.88;100760.69;7363005;19;20574;-59
2023/09/29 06:27:19;;;;;;;0.08;0.08;;;;;;;12.13;78.57;100756.63;7363586;19;20006;-61
2023/09/29 06:29:49;;;;;;;0.10;0.10;;;;;;;12.24;78.86;100774.63;7362732;19;20510;-60
2023/09/29 06:32:15;;;;;;;0.10;0.10;;;;;;;12.19;79.11;100767.75;7366673;19;20010;-59
2023/09/29 06:34:40;;;;;;;0.10;0.10;;;;;;;12.24;78.86;100775.50;7363469;19;20032;-60
2023/09/29 06:37:06;;;;;;;0.10;0.10;;;;;;;12.25;78.77;100792.06;7359291;19;20035;-60
2023/09/29 06:39:31;;;;;;;0.10;0.10;;;;;;;12.14;78.91;100774.91;7359111;19;20328;-61
2023/09/29 06:41:57;;;;;;;0.10;0.10;;;;;;;12.10;79.05;100777.63;7363846;19;20029;-60
2023/09/29 06:44:23;;;;;;;0.03;0.03;;;;;;;12.12;78.71;100781.94;7365839;19;20018;-60
2023/09/29 06:46:49;;;;;;;0.10;0.10;;;;;;;12.28;78.91;100797.22;7367107;19;20013;-60
2023/09/29 06:49:14;;;;;;;0.10;0.10;;;;;;;12.30;79.24;100811.13;7366793;19;20011;-60
2023/09/29 06:51:39;;;;;;;0.10;0.10;;;;;;;12.31;79.30;100812.81;7365418;19;20021;-60
2023/09/29 06:54:05;;;;;;;0.03;0.03;;;;;;;12.32;79.00;100825.91;7368615;19;20014;-60
2023/09/29 06:56:30;;;;;;;0.10;0.10;;;;;;;12.32;79.03;100825.91;7364888;19;20014;-60
2023/09/29 06:58:56;;;;;;;0.10;0.10;;;;;;;12.35;78.91;100824.94;7367843;19;20014;-60
2023/09/29 07:01:22;;;;;;;0.10;0.10;;;;;;;12.36;78.84;100832.75;7369846;19;20091;-61
2023/09/29 07:03:47;;;;;;;0.10;0.10;;;;;;;12.37;79.00;100841.50;7371396;19;20019;-60
2023/09/29 07:06:13;;;;;;;0.05;0.05;;;;;;;12.39;79.19;100837.06;7368310;19;20038;-60
2023/09/29 07:08:39;;;;;;;0.10;0.10;;;;;;;12.42;79.30;100842.22;7369268;19;20451;-60
2023/09/29 07:11:04;;;;;;;0.10;0.10;;;;;;;12.44;78.89;100843.03;7365123;19;20085;-60
2023/09/29 07:13:30;;;;;;;0.10;0.10;;;;;;;12.46;79.07;100844.69;7363332;19;20399;-61
2023/09/29 07:15:55;;;;;;;0.10;0.10;;;;;;;12.50;79.22;100849.84;7360208;19;20081;-60
2023/09/29 07:18:21;;;;;;;0.08;0.08;;;;;;;12.54;78.81;100857.56;7370331;19;20010;-60
2023/09/29 07:20:50;;;;;;;0.10;0.10;;;;;;;12.41;78.75;100830.00;7368076;19;20018;-60
2023/09/29 07:23:16;;;;;;;0.10;0.10;;;;;;;12.57;78.85;100862.75;7368272;19;20014;-59
2023/09/29 07:25:41;;;;;;;0.10;0.10;;;;;;;12.55;79.20;100856.66;7376158;19;20007;-60
2023/09/29 07:28:11;;;;;;;0.10;0.10;;;;;;;12.64;79.11;100869.50;7376010;19;20015;-60
2023/09/29 07:30:36;;;;;;;0.10;0.10;;;;;;;12.50;79.14;100840.22;7369965;19;20056;-60
2023/09/29 07:33:02;;;;;;;0.10;0.10;;;;;;;12.71;79.24;100871.03;7364857;19;20787;-60
2023/09/29 07:35:27;;;;;;;0.03;0.03;;;;;;;12.71;78.88;100873.66;7374838;19;20646;-60
2023/09/29 07:37:53;;;;;;;0.10;0.10;;;;;;;12.74;79.20;100880.59;7366193;19;20053;-61
2023/09/29 07:40:18;;;;;;;0.10;0.10;;;;;;;12.79;79.08;100878.69;7371728;19;20023;-60
2023/09/29 07:42:43;;;;;;;0.03;0.03;;;;;;;12.86;79.16;100889.84;7364192;19;20003;-60
2023/09/29 07:45:09;;;;;;;0.05;0.05;;;;;;;12.88;78.79;100893.31;7368004;19;20011;-61
2023/09/29 07:47:34;;;;;;;0.10;0.10;;;;;;;12.94;78.79;100904.47;7353621;19;20376;-60
2023/09/29 07:50:00;;;;;;;0.10;0.10;;;;;;;13.02;78.79;100903.34;7349250;19;20011;-60
2023/09/29 07:52:28;;;;;;;0.08;0.08;;;;;;;13.09;78.77;100905.78;7367120;19;20056;-60
2023/09/29 07:54:56;;;;;;;0.10;0.10;;;;;;;13.04;78.83;100889.31;7368721;19;20017;-61
2023/09/29 07:57:22;;;;;;;0.10;0.10;;;;;;;13.23;78.67;100914.13;7352916;19;20010;-61
2023/09/29 07:59:47;;;;;;;0.10;0.10;;;;;;;13.23;78.78;100901.00;7364977;19;20004;-60
2023/09/29 08:02:13;;;;;;;0.10;0.10;;;;;;;13.41;78.54;100919.69;7361777;19;20417;-61
2023/09/29 08:04:38;;;;;;;0.10;0.10;;;;;;;13.33;78.54;100900.69;7367098;19;20010;-60
2023/09/29 08:07:04;;;;;;;0.10;0.10;;;;;;;13.60;78.72;100926.09;7367639;19;20095;-60
2023/09/29 08:09:29;;;;;;;0.10;0.10;;;;;;;13.65;78.26;100921.56;7361607;19;20015;-60
2023/09/29 08:11:55;;;;;;;0.10;0.10;;;;;;;13.80;78.51;100928.09;7361929;19;20706;-61
2023/09/29 08:14:20;;;;;;;0.10;0.10;;;;;;;13.91;78.28;100941.72;7362981;19;20398;-61
2023/09/29 08:16:46;;;;;;;0.10;0.10;;;;;;;14.01;78.03;100931.78;7364124;19;20022;-60
2023/09/29 08:19:11;;;;;;;0.10;0.10;;;;;;;14.14;78.07;100940.97;7363489;19;20288;-60
2023/09/29 08:21:38;;;;;;;0.10;0.10;;;;;;;14.25;77.65;100936.19;7363087;19;20372;-61
2023/09/29 08:24:06;;;;;;;0.10;0.10;;;;;;;14.34;77.35;100942.88;7366077;19;20113;-60
2023/09/29 08:26:32;;;;;;;0.00;0.00;;;;;;;14.42;77.52;100937.38;7365691;19;20070;-61
2023/09/29 08:28:59;;;;;;;0.10;0.10;;;;;;;14.54;77.33;100929.09;7365196;19;20090;-60
2023/09/29 08:31:24;;;;;;;0.10;0.10;;;;;;;14.75;77.09;100952.00;7363702;19;20015;-61
2023/09/29 08:33:50;;;;;;;0.10;0.10;;;;;;;14.91;77.41;100956.72;7365889;19;20017;-60
2023/09/29 08:36:16;;;;;;;0.10;0.10;;;;;;;15.03;76.92;100961.50;7362922;19;20039;-60
2023/09/29 08:38:41;;;;;;;0.10;0.10;;;;;;;15.18;77.07;100965.34;7362832;19;20006;-60
2023/09/29 08:41:08;;;;;;;0.10;0.10;;;;;;;15.36;76.56;100974.28;7362394;19;20014;-60
2023/09/29 08:43:34;;;;;;;0.10;0.10;;;;;;;15.50;75.94;100983.38;7363840;19;20010;-61
2023/09/29 08:46:00;;;;;;;0.10;0.10;;;;;;;15.63;75.75;100978.53;7363719;19;20013;-61
2023/09/29 08:48:32;;;;;;;0.00;0.00;;;;;;;15.85;75.74;100988.22;7360325;19;20015;-60
2023/09/29 08:51:01;;;;;;;0.10;0.10;;;;;;;15.98;75.51;100989.44;7363638;19;20479;-60
2023/09/29 08:53:28;;;;;;;0.10;0.10;;;;;;;16.17;75.70;101000.06;7359636;19;20101;-61
2023/09/29 08:55:56;;;;;;;0.10;0.10;;;;;;;16.20;75.42;100985.00;7367473;19;20761;-60
2023/09/29 08:58:28;;;;;;;0.05;0.05;;;;;;;16.50;75.34;101006.59;7363132;19;20117;-60
2023/09/29 09:00:54;;;;;;;0.10;0.10;;;;;;;16.70;75.34;101010.16;7365489;19;20022;-61
2023/09/29 09:03:20;;;;;;;0.10;0.10;;;;;;;16.82;74.58;101015.78;7362089;19;20483;-60
2023/09/29 09:05:45;;;;;;;0.10;0.10;;;;;;;16.89;73.91;101007.63;7361639;19;20022;-60
2023/09/29 09:08:11;;;;;;;0.10;0.10;;;;;;;17.07;73.76;101015.53;7364091;19;20081;-60
2023/09/29 09:10:37;;;;;;;0.10;0.10;;;;;;;17.24;73.98;101030.66;7360684;19;20015;-61
2023/09/29 09:13:05;;;;;;;0.10;0.10;;;;;;;17.38;74.21;101038.78;7363059;19;20090;-60
2023/09/29 09:15:30;;;;;;;;;;;;;;;17.66;74.27;101039.31;7354534;19;20018;-60
2023/09/29 09:17:57;;;;;;;0.10;0.10;;;;;;;17.68;73.04;101038.28;7364298;19;19921;-61
2023/09/29 09:20:23;;;;;;;0.10;0.10;;;;;;;17.85;73.20;101062.19;7361689;19;20078;-60
2023/09/29 09:23:00;;;;;;;0.10;0.10;;;;;;;18.02;73.11;101057.88;7364681;19;20010;-61
2023/09/29 09:25:37;;;;;;;0.10;0.10;;;;;;;18.18;72.17;101074.69;7366655;19;20491;-61
2023/09/29 09:28:03;;;;;;;0.10;0.10;;;;;;;18.25;71.28;101078.78;7364596;19;20818;-61
2023/09/29 09:30:35;;;;;;;0.10;0.10;;;;;;;18.42;71.30;101084.06;7364450;19;20026;-61
2023/09/29 09:33:03;;;;;;;0.10;0.10;;;;;;;18.62;71.17;101083.09;7366623;19;20011;-61
2023/09/29 09:35:28;;;;;;;;;;;;;;;18.95;73.09;101081.47;7372573;19;20038;-61
2023/09/29 09:37:55;;;;;;;0.10;0.10;;;;;;;19.04;71.17;101083.66;7365709;19;19923;-60
2023/09/29 09:40:24;;;;;;;0.10;0.10;;;;;;;19.18;69.78;101086.44;7363705;19;20029;-61
2023/09/29 09:42:50;;;;;;;0.10;0.10;;;;;;;19.33;69.50;101079.50;7365585;19;20130;-61
2023/09/29 09:45:15;;;;;;;0.10;0.10;;;;;;;19.47;68.53;101078.75;7364203;19;21042;-61
2023/09/29 09:47:41;;;;;;;0.20;0.20;;;;;;;19.67;68.61;101091.81;7365009;19;20021;-61
2023/09/29 09:50:11;;;;;;;0.10;0.10;;;;;;;19.89;68.33;101081.75;7364236;19;20007;-61
2023/09/29 09:52:37;;;;;;;0.20;0.20;;;;;;;19.94;67.26;101092.94;7363868;19;20006;-61
2023/09/29 09:55:10;;;;;;;0.10;0.10;;;;;;;20.10;68.51;101105.34;7362785;19;20224;-61
2023/09/29 09:57:41;;;;;;;0.10;0.10;;;;;;;19.99;66.63;101081.22;7363297;19;20482;-61
2023/09/29 10:00:12;;;;;;;0.10;0.10;;;;;;;20.16;67.19;101107.63;7366916;19;20019;-61
2023/09/29 10:02:48;;;;;;;0.10;0.10;;;;;;;20.26;68.32;101116.78;7361907;19;20007;-60
2023/09/29 10:05:17;;;;;;;0.10;0.10;;;;;;;20.31;67.30;101125.34;7365112;19;20007;-61
2023/09/29 10:07:46;;;;;;;0.10;0.10;;;;;;;20.36;68.28;101112.66;7361392;19;20458;-61
2023/09/29 10:10:31;;;;;;;0.10;0.10;;;;;;;20.62;68.64;101128.94;7360594;19;20775;-61
2023/09/29 10:13:07;;;;;;;0.10;0.10;;;;;;;20.46;65.56;101113.00;7372233;19;20015;-61
2023/09/29 10:15:35;;;;;;;0.10;0.10;;;;;;;20.58;65.42;101132.69;7369120;19;20028;-61
2023/09/29 10:18:12;;;;;;;0.10;0.10;;;;;;;20.58;64.47;101138.00;7368686;19;20617;-61
2023/09/29 10:20:37;;;;;;;0.10;0.10;;;;;;;20.61;65.52;101148.44;7369773;19;20035;-61
2023/09/29 10:23:06;;;;;;;0.10;0.10;;;;;;;20.66;66.33;101146.38;7371123;19;20003;-61
2023/09/29 10:25:38;;;;;;;0.10;0.10;;;;;;;20.73;64.75;101142.41;7369919;19;20043;-62
2023/09/29 10:28:08;;;;;;;0.03;0.03;;;;;;;20.84;65.26;101145.34;7371790;19;20017;-61
2023/09/29 10:30:35;;;;;;;0.10;0.10;;;;;;;21.05;64.94;101161.78;7363597;19;20090;-61
2023/09/29 10:33:13;;;;;;;0.10;0.10;;;;;;;21.36;67.10;101152.88;7372381;19;20014;-61
2023/09/29 10:35:46;;;;;;;0.10;0.10;;;;;;;21.66;66.01;101159.94;7371795;19;20731;-60
2023/09/29 10:38:25;;;;;;;0.10;0.10;;;;;;;22.00;67.55;101159.53;7367478;19;20010;-61
2023/09/29 10:40:50;;;;;;;0.10;0.10;;;;;;;22.17;63.69;101160.28;7370517;19;20019;-61
2023/09/29 10:43:23;;;;;;;0.10;0.10;;;;;;;22.53;63.13;101162.38;7364726;19;20375;-61
2023/09/29 10:45:50;;;;;;;0.10;0.10;;;;;;;22.70;62.81;101159.44;7370116;19;20014;-61
2023/09/29 10:48:21;;;;;;;0.10;0.10;;;;;;;22.94;60.34;101167.66;7368758;19;20017;-61
2023/09/29 10:50:51;;;;;;;0.10;0.10;;;;;;;23.20;60.42;101162.38;7367348;19;20778;-61
2023/09/29 10:53:21;;;;;;;0.10;0.10;;;;;;;23.43;61.14;101169.66;7366462;19;20089;-61
2023/09/29 10:55:48;;;;;;;0.10;0.10;;;;;;;23.73;58.94;101169.34;7371102;19;20014;-61
2023/09/29 10:58:14;;;;;;;;;;;;;;;24.10;64.27;101168.53;7366795;19;20048;-62
2023/09/29 11:00:46;;;;;;;0.10;0.10;;;;;;;24.08;57.72;101177.53;7366379;19;20028;-61
2023/09/29 11:03:16;;;;;;;0.10;0.10;;;;;;;24.08;56.28;101177.53;7369172;19;20496;-61
2023/09/29 11:05:53;;;;;;;0.10;0.10;;;;;;;24.11;57.34;101180.91;7367040;19;20861;-61
2023/09/29 11:08:20;;;;;;;0.10;0.10;;;;;;;24.12;55.42;101159.44;7371046;19;20410;-61
2023/09/29 11:11:14;;;;;;;0.10;0.10;;;;;;;24.28;59.33;101189.41;7361872;19;20026;-61
2023/09/29 11:13:39;;;;;;;0.05;0.05;;;;;;;24.24;52.68;101192.41;7367259;19;20538;-61
2023/09/29 11:16:16;;;;;;;0.10;0.10;;;;;;;24.38;57.15;101204.78;7369753;19;20007;-61
2023/09/29 11:18:44;;;;;;;;;;;;;;;24.50;60.08;101199.41;7369298;19;20747;-61
2023/09/29 11:21:11;;;;;;;0.10;0.10;;;;;;;24.42;55.66;101196.44;7368691;19;20018;-61
2023/09/29 11:23:45;;;;;;;0.10;0.10;;;;;;;24.52;54.93;101193.94;7370128;19;20483;-61
2023/09/29 11:26:11;;;;;;;0.10;0.10;;;;;;;24.45;52.19;101198.91;7375781;19;20013;-61